Mississippi Star — 9HA2441 — position and weather

sailwx.info

Track history (hours):
 
Tides and Currents Weather Stations Pressure Air Temp Water Temp Dewpoint Dewpoint Depression Visibility Wind Speed Wind Dir Waves Ship Positions

Mississippi Star

Last reported at 2016-Apr-30 21:26 UTC. Time now 2016-May-01 08:00 UTC.
Position N 51°25' E 002°38'.

Length 128 m; draft 6.1 m.

Type: Ship (hazmat cat B). MMSI: 248621000.

Date/timePositionNaut miles runAvg speedWind from/ knotsBaromVisibWave heightAir tempDewpointWater temp
2016-Apr-30 21:26N 51°25' E 002°38'1110.4
2016-Apr-30 20:22N 51°20' E 002°22'1113.4
2016-Apr-30 19:34N 51°15' E 002°07'1413.7
2016-Apr-30 18:33N 51°07' E 001°48'1414.1
2016-Apr-30 17:33N 50°58' E 001°32'6312.2
2016-Apr-30 12:25N 50°20' E 000°13'1112.1
2016-Apr-30 11:33N 50°14' W 000°01'1212.0
2016-Apr-30 10:33N 50°04' W 000°10'1111.5
2016-Apr-30 09:34N 49°54' W 000°18'1111.1
2016-Apr-30 08:34N 49°43' W 000°23'1211.5
2016-Apr-30 07:33N 49°33' W 000°14'1212.5
2016-Apr-30 06:33N 49°29' E 000°05'4 3.9
2016-Apr-30 05:33N 49°29' E 000°11'2 2.3
2016-Apr-30 04:32N 49°28' E 000°14'0 0.0
2016-Apr-30 03:32N 49°28' E 000°14'0 0.0
2016-Apr-30 02:32N 49°28' E 000°14'0 0.0
2016-Apr-30 01:32N 49°28' E 000°14'0 0.0
2016-Apr-30 00:32N 49°28' E 000°14'0 0.0
2016-Apr-29 23:32N 49°28' E 000°14'0 0.0
2016-Apr-29 22:32N 49°28' E 000°14'0 0.0
2016-Apr-29 21:32N 49°28' E 000°14'0 0.0
2016-Apr-29 20:32N 49°28' E 000°14'0 0.0
2016-Apr-29 19:32N 49°28' E 000°14'0 0.0
2016-Apr-29 18:32N 49°28' E 000°14'0 0.0
2016-Apr-29 17:32N 49°28' E 000°14'0 0.0
2016-Apr-29 16:31N 49°28' E 000°14'0 0.0
2016-Apr-29 15:32N 49°28' E 000°14'0 0.0
2016-Apr-29 14:31N 49°28' E 000°14'0 0.0
2016-Apr-29 13:32N 49°28' E 000°14'0 0.0
2016-Apr-29 12:31N 49°28' E 000°14'0 0.0
2016-Apr-29 11:32N 49°28' E 000°14'0 0.0
2016-Apr-29 10:31N 49°28' E 000°14'0 0.0
2016-Apr-29 09:31N 49°28' E 000°14'0 0.0
2016-Apr-29 08:31N 49°28' E 000°14'2 2.5
2016-Apr-29 07:33N 49°29' E 000°11'2 1.6
2016-Apr-29 06:33N 49°28' E 000°08'9 8.6
2016-Apr-29 05:33N 49°30' W 000°05'1 0.5
2016-Apr-29 04:33N 49°30' W 000°04'0 0.0
2016-Apr-29 03:33N 49°30' W 000°04'0 0.0
2016-Apr-29 02:33N 49°30' W 000°04'0 0.0
2016-Apr-29 01:32N 49°30' W 000°04'0 0.0
2016-Apr-29 00:32N 49°30' W 000°04'1 0.6
2016-Apr-28 23:33N 49°30' W 000°05'1312.8
2016-Apr-28 22:33N 49°36' W 000°22'1313.3
2016-Apr-28 21:33N 49°42' W 000°41'1312.7
2016-Apr-28 20:32N 49°48' W 000°59'16611.6
2016-Apr-28 06:16N 48°59' W 005°03'1013.3
2016-Apr-28 05:33N 48°55' W 005°16'  
2016-Apr-25 15:24N 39°22' W 009°57'1011.4
2016-Apr-25 14:33N 39°12' W 009°57'1111.4
2016-Apr-25 13:33N 39°01' W 009°56'1211.5
2016-Apr-25 12:31N 38°49' W 009°57'1111.1
2016-Apr-25 11:33N 38°38' W 009°56'1111.3
2016-Apr-25 10:33N 38°27' W 009°52'1211.5
2016-Apr-25 09:33N 38°16' W 009°48'1211.7
2016-Apr-25 08:33N 38°05' W 009°45'1211.6
2016-Apr-25 07:33N 37°53' W 009°42'1211.7
2016-Apr-25 06:33N 37°42' W 009°39'1212.1
2016-Apr-25 05:33N 37°30' W 009°35'1212.2
2016-Apr-25 04:33N 37°18' W 009°32'1312.2
2016-Apr-25 03:32N 37°06' W 009°28'1211.8
2016-Apr-25 02:31N 36°54' W 009°25'1111.6
2016-Apr-25 01:33N 36°45' W 009°17'1211.3
2016-Apr-25 00:31N 36°39' W 009°05'17611.5
2016-Apr-24 09:10N 35°59' W 005°32'5 8.4
2016-Apr-24 08:33N 36°01' W 005°26'7 0.7
2016-Apr-23 22:33N 36°06' W 005°22'10 1.5
2016-Apr-23 15:33N 36°10' W 005°10'2 1.6
2016-Apr-23 14:33N 36°09' W 005°10'21211.1
2016-Apr-22 19:30N 37°17' W 000°59'1212.3
2016-Apr-22 18:33N 37°24' W 000°48'1212.3
2016-Apr-22 17:33N 37°32' W 000°36'1211.9
2016-Apr-22 16:34N 37°42' W 000°27'1211.9
2016-Apr-22 15:34N 37°52' W 000°19'1212.0
2016-Apr-22 14:33N 38°02' W 000°11'1312.0
2016-Apr-22 13:30N 38°12' W 000°02'1212.2
2016-Apr-22 12:29N 38°23' E 000°06'10012.6
2016-Apr-22 04:32N 39°56' E 000°56'1512.6
2016-Apr-22 03:21N 40°10' E 001°00'1012.5
2016-Apr-22 02:33N 40°20' E 001°03'1312.6
2016-Apr-22 01:33N 40°33' E 001°05'1412.8
2016-Apr-22 00:29N 40°46' E 001°08'1212.6
2016-Apr-21 23:33N 40°58' E 001°11'  
Track history (hours):
 
Tides and Currents Weather Stations Pressure Air Temp Water Temp Dewpoint Dewpoint Depression Visibility Wind Speed Wind Dir Waves Ship Positions

Mississippi Star

Last reported at 2016-Apr-30 21:26 UTC. Time now 2016-May-01 08:00 UTC.
Position N 51°25' E 002°38'.

Length 128 m; draft 6.1 m.

Type: Ship (hazmat cat B). MMSI: 248621000.

Date/timePositionNaut miles runAvg speedWind from/ knotsBaromVisibWave heightAir tempDewpointWater temp
2016-Apr-30 21:26N 51°25' E 002°38'1110.4
2016-Apr-30 20:22N 51°20' E 002°22'1113.4
2016-Apr-30 19:34N 51°15' E 002°07'1413.7
2016-Apr-30 18:33N 51°07' E 001°48'1414.1
2016-Apr-30 17:33N 50°58' E 001°32'6312.2
2016-Apr-30 12:25N 50°20' E 000°13'1112.1
2016-Apr-30 11:33N 50°14' W 000°01'1212.0
2016-Apr-30 10:33N 50°04' W 000°10'1111.5
2016-Apr-30 09:34N 49°54' W 000°18'1111.1
2016-Apr-30 08:34N 49°43' W 000°23'1211.5
2016-Apr-30 07:33N 49°33' W 000°14'1212.5
2016-Apr-30 06:33N 49°29' E 000°05'4 3.9
2016-Apr-30 05:33N 49°29' E 000°11'2 2.3
2016-Apr-30 04:32N 49°28' E 000°14'0 0.0
2016-Apr-30 03:32N 49°28' E 000°14'0 0.0
2016-Apr-30 02:32N 49°28' E 000°14'0 0.0
2016-Apr-30 01:32N 49°28' E 000°14'0 0.0
2016-Apr-30 00:32N 49°28' E 000°14'0 0.0
2016-Apr-29 23:32N 49°28' E 000°14'0 0.0
2016-Apr-29 22:32N 49°28' E 000°14'0 0.0
2016-Apr-29 21:32N 49°28' E 000°14'0 0.0
2016-Apr-29 20:32N 49°28' E 000°14'0 0.0
2016-Apr-29 19:32N 49°28' E 000°14'0 0.0
2016-Apr-29 18:32N 49°28' E 000°14'0 0.0
2016-Apr-29 17:32N 49°28' E 000°14'0 0.0
2016-Apr-29 16:31N 49°28' E 000°14'0 0.0
2016-Apr-29 15:32N 49°28' E 000°14'0 0.0
2016-Apr-29 14:31N 49°28' E 000°14'0 0.0
2016-Apr-29 13:32N 49°28' E 000°14'0 0.0
2016-Apr-29 12:31N 49°28' E 000°14'0 0.0
2016-Apr-29 11:32N 49°28' E 000°14'0 0.0
2016-Apr-29 10:31N 49°28' E 000°14'0 0.0
2016-Apr-29 09:31N 49°28' E 000°14'0 0.0
2016-Apr-29 08:31N 49°28' E 000°14'2 2.5
2016-Apr-29 07:33N 49°29' E 000°11'2 1.6
2016-Apr-29 06:33N 49°28' E 000°08'9 8.6
2016-Apr-29 05:33N 49°30' W 000°05'1 0.5
2016-Apr-29 04:33N 49°30' W 000°04'0 0.0
2016-Apr-29 03:33N 49°30' W 000°04'0 0.0
2016-Apr-29 02:33N 49°30' W 000°04'0 0.0
2016-Apr-29 01:32N 49°30' W 000°04'0 0.0
2016-Apr-29 00:32N 49°30' W 000°04'1 0.6
2016-Apr-28 23:33N 49°30' W 000°05'1312.8
2016-Apr-28 22:33N 49°36' W 000°22'1313.3
2016-Apr-28 21:33N 49°42' W 000°41'1312.7
2016-Apr-28 20:32N 49°48' W 000°59'16611.6
2016-Apr-28 06:16N 48°59' W 005°03'1013.3
2016-Apr-28 05:33N 48°55' W 005°16'  
2016-Apr-25 15:24N 39°22' W 009°57'1011.4
2016-Apr-25 14:33N 39°12' W 009°57'1111.4
2016-Apr-25 13:33N 39°01' W 009°56'1211.5
2016-Apr-25 12:31N 38°49' W 009°57'1111.1
2016-Apr-25 11:33N 38°38' W 009°56'1111.3
2016-Apr-25 10:33N 38°27' W 009°52'1211.5
2016-Apr-25 09:33N 38°16' W 009°48'1211.7
2016-Apr-25 08:33N 38°05' W 009°45'1211.6
2016-Apr-25 07:33N 37°53' W 009°42'1211.7
2016-Apr-25 06:33N 37°42' W 009°39'1212.1
2016-Apr-25 05:33N 37°30' W 009°35'1212.2
2016-Apr-25 04:33N 37°18' W 009°32'1312.2
2016-Apr-25 03:32N 37°06' W 009°28'1211.8
2016-Apr-25 02:31N 36°54' W 009°25'1111.6
2016-Apr-25 01:33N 36°45' W 009°17'1211.3
2016-Apr-25 00:31N 36°39' W 009°05'17611.5
2016-Apr-24 09:10N 35°59' W 005°32'5 8.4
2016-Apr-24 08:33N 36°01' W 005°26'7 0.7
2016-Apr-23 22:33N 36°06' W 005°22'10 1.5
2016-Apr-23 15:33N 36°10' W 005°10'2 1.6
2016-Apr-23 14:33N 36°09' W 005°10'21211.1
2016-Apr-22 19:30N 37°17' W 000°59'1212.3
2016-Apr-22 18:33N 37°24' W 000°48'1212.3
2016-Apr-22 17:33N 37°32' W 000°36'1211.9
2016-Apr-22 16:34N 37°42' W 000°27'1211.9
2016-Apr-22 15:34N 37°52' W 000°19'1212.0
2016-Apr-22 14:33N 38°02' W 000°11'1312.0
2016-Apr-22 13:30N 38°12' W 000°02'1212.2
2016-Apr-22 12:29N 38°23' E 000°06'10012.6
2016-Apr-22 04:32N 39°56' E 000°56'1512.6
2016-Apr-22 03:21N 40°10' E 001°00'1012.5
2016-Apr-22 02:33N 40°20' E 001°03'1312.6
2016-Apr-22 01:33N 40°33' E 001°05'1412.8
2016-Apr-22 00:29N 40°46' E 001°08'1212.6
2016-Apr-21 23:33N 40°58' E 001°11'  

Dump ship's entire track history